メインページ
METAR-TAF:

METAR-TAF

空港 :

グアム国際空港

ハガニア, グアム, アメリカ合衆国

緯度: 13-29N, 経度: 144-48E, 海抜: 91m

現時点の気象観測

当レポートは58分前の05:54(UTC)に作成
の風 13kt
気温 29°C
湿度 89%
気圧 1003 hPa
視程: 16.1km
高度1500ftの雲はほとんどない
高度2800ftの雲は散在している
高度3400ftの千切れ雲あり

METAR: PGUM 150554Z 10013KT 10SM FEW015 SCT028 BKN034 29/27 A2961 RMK AO2 RAB02E17 SLP019 P0000 60019 T02890267 10311 20267 56017

時間: 16:52 (06:52 UTC)

予報

当レポートは1時間11分前の05:41(UTC)に作成
予報は15日の 06時(UTC)から 16日の 12時(UTC)まで有効
の風 15kt
視程: 10km
高度1800ftの雲は散在している
高度3000ftの雲は散在している
高度11000ftの千切れ雲あり
近辺でにわか雨
15日の 06時(UTC)から 15日の 08時(UTC)まで一時的に
の風 12kt、最大20ktの突風を伴う
高度2000ftの千切れ雲あり

TAF: PGUM 150541Z 1506/1612 08015KT P6SM VCSH SCT018 SCT030 BKN110 TEMPO 1506/1508 08012G20KT BKN020

4,000以上の空港の気象観測と天気予報(METAR報とTAF報)

利用可能な観測所は地図上に黄色い丸と赤い丸で示す。

丸の上にカーソルを重ねると観測所名を参照できる。

次にクリックすると気象観測と天気予報を参照できる。

マップの切り替え:黒色「×」印の緑ボタンをクリックして拡大、「-」印の緑ボタンをクリックして縮小、緑色の三角印をクリックして隣りの地図に切り替え


METAR-TAF: